KTHV/THV METAR and TAF weather

Enter ICAO airport designator
Station Type Date Time Source
KTHV METAR 2020/11/28 19:53 UTC NOAA

KTHV 281953Z AUTO 28006KT 10SM CLR 13/M02 A3002 RMK AO2 SLP170 T01281017


Station Type Date Time Source
KTHV Decoded METAR 2020/11/28 19:53 UTC NOAA

YORK AIRPORT, PA, United States (KTHV) 39-55N 076-53W 144M
Nov 28, 2020 - 02:53 PM EST / 2020.11.28 1953 UTC
Wind: from the W (280 degrees) at 7 MPH (6 KT):0
Visibility: 10 mile(s):0
Sky conditions: clear
Temperature: 55.0 F (12.8 C)
Dew Point: 28.9 F (-1.7 C)
Relative Humidity: 36%
Pressure (altimeter): 30.02 in. Hg (1016 hPa)
ob: KTHV 281953Z AUTO 28006KT 10SM CLR 13/M02 A3002 RMK AO2 SLP170 T01281017
cycle: 20

Station Type Date Time Source
KTHV TAF UTC NOAA

Error!

Example: see airport list